createdAt,value
2023-04-08T00:02:24.147Z,96754.63
2023-04-08T00:05:29.274Z,96770.41
2023-04-08T00:08:33.934Z,96760.88
2023-04-08T00:11:39.002Z,96748.81
2023-04-08T00:14:43.663Z,96731.00
2023-04-08T00:17:48.203Z,96744.63
2023-04-08T00:20:52.794Z,96766.00
2023-04-08T00:23:57.404Z,96739.38
2023-04-08T00:27:02.771Z,96765.88
2023-04-08T00:30:07.831Z,96757.25
2023-04-08T00:33:12.523Z,96750.66
2023-04-08T00:36:17.651Z,96747.53
2023-04-08T00:39:22.333Z,96770.13
2023-04-08T00:42:26.901Z,96747.34
2023-04-08T00:45:31.616Z,96773.88
2023-04-08T00:48:36.285Z,96776.69
2023-04-08T00:51:40.871Z,96773.28
2023-04-08T00:54:45.545Z,96745.69
2023-04-08T00:57:50.277Z,96763.34
2023-04-08T01:01:01.448Z,96736.25
2023-04-08T01:04:14.371Z,96769.91
2023-04-08T01:07:33.420Z,96781.03
2023-04-08T01:10:41.578Z,96773.81
2023-04-08T01:13:47.656Z,96773.69
2023-04-08T01:16:56.104Z,96742.75
2023-04-08T01:20:04.527Z,96772.44
2023-04-08T01:23:35.062Z,96771.16
2023-04-08T01:26:40.953Z,96737.22
2023-04-08T01:29:48.606Z,96770.31
2023-04-08T01:32:55.535Z,96749.22
2023-04-08T01:36:01.045Z,96755.09
2023-04-08T01:39:06.702Z,96777.31
2023-04-08T01:42:13.634Z,96772.00
2023-04-08T01:45:18.709Z,96768.63
2023-04-08T01:48:24.221Z,96765.41
2023-04-08T01:51:31.768Z,96742.44
2023-04-08T01:54:36.454Z,96746.78
2023-04-08T01:57:44.275Z,96774.47
2023-04-08T02:00:51.644Z,96779.84
2023-04-08T02:03:58.713Z,96751.28
2023-04-08T02:07:04.686Z,96762.56
2023-04-08T02:10:09.543Z,96777.75
2023-04-08T02:13:14.443Z,96752.28
2023-04-08T02:16:49.703Z,96781.09
2023-04-08T02:20:03.449Z,96782.91
2023-04-08T02:23:13.304Z,96776.47
2023-04-08T02:26:19.592Z,96775.94
2023-04-08T02:29:26.457Z,96786.44
2023-04-08T02:32:33.846Z,96780.31
2023-04-08T02:35:41.385Z,96785.38
2023-04-08T02:38:50.416Z,96746.16
2023-04-08T02:41:55.206Z,96774.66
2023-04-08T02:45:00.108Z,96761.44
2023-04-08T02:48:06.402Z,96778.50
2023-04-08T02:51:11.052Z,96772.84
2023-04-08T02:54:15.892Z,96756.22
2023-04-08T02:57:20.632Z,96760.53
2023-04-08T03:00:25.423Z,96776.16
2023-04-08T03:03:31.328Z,96755.84
2023-04-08T03:06:35.987Z,96772.81
2023-04-08T03:09:40.660Z,96739.03
2023-04-08T03:12:45.191Z,96749.72
2023-04-08T03:15:49.855Z,96735.56
2023-04-08T03:18:54.522Z,96736.53
2023-04-08T03:21:59.096Z,96746.09
2023-04-08T03:25:04.446Z,96780.50
2023-04-08T03:28:09.046Z,96762.88
2023-04-08T03:31:13.575Z,96779.94
2023-04-08T03:34:18.117Z,96780.56
2023-04-08T03:37:22.772Z,96786.19
2023-04-08T03:40:27.420Z,96790.53
2023-04-08T03:43:32.770Z,96794.50
2023-04-08T03:46:37.487Z,96791.25
2023-04-08T03:49:42.248Z,96798.03
2023-04-08T03:52:46.754Z,96806.97
2023-04-08T03:55:51.332Z,96790.09
2023-04-08T03:58:56.298Z,96781.38
2023-04-08T04:02:00.936Z,96799.09
2023-04-08T04:05:05.645Z,96781.56
2023-04-08T04:08:10.439Z,96820.28
2023-04-08T04:11:15.078Z,96830.31
2023-04-08T04:14:19.664Z,96838.44
2023-04-08T04:17:24.285Z,96815.28
2023-04-08T04:20:30.459Z,96840.59
2023-04-08T04:23:35.092Z,96846.53
2023-04-08T04:26:41.703Z,96855.13
2023-04-08T04:29:46.337Z,96850.25
2023-04-08T04:32:50.965Z,96873.63
2023-04-08T04:35:56.201Z,96865.19
2023-04-08T04:39:01.030Z,96846.44
2023-04-08T04:42:06.639Z,96837.97
2023-04-08T04:45:11.320Z,96870.25
2023-04-08T04:48:16.210Z,96884.31
2023-04-08T04:51:21.251Z,96883.31
2023-04-08T04:54:25.992Z,96906.66
2023-04-08T04:57:30.475Z,96883.25
2023-04-08T05:00:35.418Z,96906.69
2023-04-08T05:03:40.022Z,96899.78
2023-04-08T05:06:44.668Z,96895.78
2023-04-08T05:09:49.170Z,96913.50
2023-04-08T05:12:53.732Z,96911.25
2023-04-08T05:15:58.284Z,96885.03
2023-04-08T05:19:02.889Z,96912.38
2023-04-08T05:22:07.418Z,96907.97
2023-04-08T05:25:11.985Z,96925.13
2023-04-08T05:28:16.460Z,96912.34
2023-04-08T05:31:21.140Z,96908.81
2023-04-08T05:34:25.783Z,96935.25
2023-04-08T05:37:30.547Z,96940.53
2023-04-08T05:40:35.269Z,96928.41
2023-04-08T05:43:39.752Z,96933.22
2023-04-08T05:46:44.357Z,96944.00
2023-04-08T05:49:50.205Z,96915.75
2023-04-08T05:52:55.711Z,96943.34
2023-04-08T05:56:00.253Z,96954.25
2023-04-08T05:59:04.888Z,96933.81
2023-04-08T06:02:09.975Z,96951.78
2023-04-08T06:05:14.665Z,96936.97
2023-04-08T06:08:19.545Z,96943.25
2023-04-08T06:11:24.005Z,96942.28
2023-04-08T06:14:28.532Z,96927.44
2023-04-08T06:17:33.214Z,96926.63
2023-04-08T06:20:37.854Z,96934.25
2023-04-08T06:23:42.715Z,96937.63
2023-04-08T06:26:47.933Z,96969.16
2023-04-08T06:29:53.354Z,96969.06
2023-04-08T06:32:57.954Z,96976.63
2023-04-08T06:36:06.609Z,96973.25
2023-04-08T06:39:11.254Z,96949.00
2023-04-08T06:42:15.803Z,96970.78
2023-04-08T06:45:39.676Z,96975.56
2023-04-08T06:48:44.223Z,96949.44
2023-04-08T06:51:48.969Z,96958.03
2023-04-08T06:54:53.465Z,96958.53
2023-04-08T06:57:58.183Z,96991.94
2023-04-08T07:01:03.404Z,96989.94
2023-04-08T07:04:08.064Z,96971.44
2023-04-08T07:07:12.791Z,96997.06
2023-04-08T07:10:17.461Z,96991.06
2023-04-08T07:13:21.974Z,96977.59
2023-04-08T07:16:26.560Z,96972.06
2023-04-08T07:19:31.573Z,97002.03
2023-04-08T07:22:36.235Z,96987.72
2023-04-08T07:25:40.799Z,96997.09
2023-04-08T07:28:45.391Z,96979.78
2023-04-08T07:31:49.996Z,96998.63
2023-04-08T07:34:54.588Z,97000.44
2023-04-08T07:37:59.204Z,97013.78
2023-04-08T07:41:03.858Z,96999.78
2023-04-08T07:44:08.370Z,97022.72
2023-04-08T07:47:13.110Z,97020.06
2023-04-08T07:50:17.702Z,97007.19
2023-04-08T07:53:23.951Z,97013.31
2023-04-08T07:56:28.585Z,97021.13
2023-04-08T07:59:33.313Z,97024.34
2023-04-08T08:02:38.081Z,97026.38
2023-04-08T08:05:42.943Z,96992.78
2023-04-08T08:08:47.747Z,97001.63
2023-04-08T08:11:52.333Z,97016.34
2023-04-08T08:14:58.998Z,97002.53
2023-04-08T08:18:03.828Z,97038.28
2023-04-08T08:21:09.720Z,97015.31
2023-04-08T08:24:14.290Z,97020.38
2023-04-08T08:27:18.908Z,97011.81
2023-04-08T08:30:23.503Z,97034.75
2023-04-08T08:33:28.362Z,97043.16
2023-04-08T08:36:34.646Z,97023.06
2023-04-08T08:39:39.591Z,97021.16
2023-04-08T08:42:55.030Z,97042.66
2023-04-08T08:45:59.795Z,97040.72
2023-04-08T08:49:04.437Z,97034.09
2023-04-08T08:52:09.415Z,97037.72
2023-04-08T08:55:31.596Z,97028.25
2023-04-08T08:58:39.273Z,97035.69
2023-04-08T09:01:43.960Z,97026.38
2023-04-08T09:05:01.338Z,97051.28
2023-04-08T09:08:22.869Z,97055.63
2023-04-08T09:11:27.423Z,97061.63
2023-04-08T09:14:32.798Z,97043.50
2023-04-08T09:17:39.283Z,97068.38
2023-04-08T09:20:53.996Z,97066.41
2023-04-08T09:23:58.626Z,97064.59
2023-04-08T09:27:04.356Z,97078.38
2023-04-08T09:30:15.811Z,97071.22
2023-04-08T09:33:20.397Z,97045.72
2023-04-08T09:36:28.809Z,97078.00
2023-04-08T09:39:33.541Z,97071.88
2023-04-08T09:42:41.214Z,97091.75
2023-04-08T09:45:47.474Z,97076.03
2023-04-08T09:49:28.981Z,97082.91
2023-04-08T09:52:40.125Z,97088.81
2023-04-08T09:55:50.502Z,97057.19
2023-04-08T09:58:59.814Z,97095.72
2023-04-08T10:02:11.326Z,97096.19
2023-04-08T10:05:17.312Z,97072.75
2023-04-08T10:08:23.799Z,97056.44
2023-04-08T10:11:30.286Z,97083.16
2023-04-08T10:14:35.185Z,97066.09
2023-04-08T10:17:39.741Z,97073.66
2023-04-08T10:20:46.714Z,97060.44
2023-04-08T10:23:59.363Z,97087.47
2023-04-08T10:27:06.450Z,97078.47
2023-04-08T10:30:26.054Z,97089.63
2023-04-08T10:33:30.530Z,97088.56
2023-04-08T10:36:35.280Z,97071.78
2023-04-08T10:39:39.916Z,97079.72
2023-04-08T10:42:44.525Z,97086.06
2023-04-08T10:45:51.625Z,97057.78
2023-04-08T10:49:02.185Z,97078.03
2023-04-08T10:52:08.038Z,97077.38
2023-04-08T10:55:12.885Z,97065.47
2023-04-08T10:58:17.466Z,97059.97
2023-04-08T11:01:22.869Z,97094.34
2023-04-08T11:04:27.723Z,97085.22
2023-04-08T11:07:33.095Z,97088.53
2023-04-08T11:10:39.129Z,97087.03
2023-04-08T11:13:53.402Z,97098.16
2023-04-08T11:17:00.363Z,97068.16
2023-04-08T11:20:06.525Z,97091.38
2023-04-08T11:23:14.860Z,97099.63
2023-04-08T11:26:21.012Z,97079.59
2023-04-08T11:29:25.526Z,97101.06
2023-04-08T11:32:30.361Z,97090.63
2023-04-08T11:35:35.504Z,97103.22
2023-04-08T11:38:43.586Z,97077.50
2023-04-08T11:41:48.226Z,97067.94
2023-04-08T11:44:53.013Z,97103.63
2023-04-08T11:47:57.715Z,97102.31
2023-04-08T11:51:04.520Z,97104.03
2023-04-08T11:54:31.006Z,97101.22
2023-04-08T11:57:36.350Z,97068.72
2023-04-08T12:00:41.158Z,97097.25
2023-04-08T12:04:04.773Z,97101.94
2023-04-08T12:07:10.700Z,97084.03
2023-04-08T12:10:15.404Z,97103.16
2023-04-08T12:13:20.014Z,97075.03
2023-04-08T12:16:24.856Z,97092.94
2023-04-08T12:19:30.149Z,97099.81
2023-04-08T12:22:36.229Z,97105.38
2023-04-08T12:25:40.775Z,97096.34
2023-04-08T12:28:46.215Z,97104.91
2023-04-08T12:31:51.861Z,97115.28
2023-04-08T12:34:56.469Z,97123.44
2023-04-08T12:38:01.155Z,97111.41
2023-04-08T12:41:05.686Z,97108.00
2023-04-08T12:44:10.971Z,97121.84
2023-04-08T12:47:15.832Z,97098.47
2023-04-08T12:50:20.815Z,97123.59
2023-04-08T12:53:25.426Z,97122.00
2023-04-08T12:56:31.148Z,97104.69
2023-04-08T12:59:36.005Z,97104.69
2023-04-08T13:02:42.198Z,97095.88
2023-04-08T13:05:46.926Z,97117.75
2023-04-08T13:08:51.798Z,97112.72
2023-04-08T13:11:56.532Z,97128.19
2023-04-08T13:15:01.550Z,97118.84
2023-04-08T13:18:06.300Z,97125.38
2023-04-08T13:21:11.033Z,97127.56
2023-04-08T13:24:16.004Z,97133.34
2023-04-08T13:27:20.599Z,97137.75
2023-04-08T13:30:25.193Z,97139.78
2023-04-08T13:33:30.196Z,97113.81
2023-04-08T13:36:35.340Z,97136.13
2023-04-08T13:39:41.274Z,97126.44
2023-04-08T13:42:45.759Z,97111.94
2023-04-08T13:45:50.392Z,97120.25
2023-04-08T13:48:55.212Z,97143.19
2023-04-08T13:51:59.793Z,97115.03
2023-04-08T13:55:04.850Z,97144.69
2023-04-08T13:58:21.142Z,97133.44
2023-04-08T14:01:28.009Z,97143.56
2023-04-08T14:04:32.906Z,97141.91
2023-04-08T14:07:37.446Z,97139.13
2023-04-08T14:10:42.537Z,97120.47
2023-04-08T14:13:47.093Z,97151.63
2023-04-08T14:16:51.899Z,97124.19
2023-04-08T14:19:56.682Z,97144.72
2023-04-08T14:23:01.503Z,97147.53
2023-04-08T14:26:06.362Z,97148.81
2023-04-08T14:29:11.731Z,97145.91
2023-04-08T14:32:17.056Z,97157.38
2023-04-08T14:35:21.800Z,97170.09
2023-04-08T14:38:26.618Z,97151.16
2023-04-08T14:41:31.531Z,97169.88
2023-04-08T14:44:36.069Z,97159.59
2023-04-08T14:47:40.779Z,97148.81
2023-04-08T14:50:46.261Z,97167.63
2023-04-08T14:53:50.979Z,97148.97
2023-04-08T14:56:56.208Z,97175.41
2023-04-08T15:00:00.809Z,97155.97
2023-04-08T15:03:05.750Z,97181.53
2023-04-08T15:06:10.807Z,97164.69
2023-04-08T15:09:15.460Z,97193.25
2023-04-08T15:12:20.115Z,97169.78
2023-04-08T15:15:24.658Z,97191.81
2023-04-08T15:18:29.336Z,97192.22
2023-04-08T15:21:33.898Z,97166.97
2023-04-08T15:24:38.604Z,97199.97
2023-04-08T15:27:43.357Z,97173.28
2023-04-08T15:30:49.310Z,97177.53
2023-04-08T15:33:54.264Z,97182.75
2023-04-08T15:36:59.655Z,97185.97
2023-04-08T15:40:04.417Z,97192.72
2023-04-08T15:43:10.860Z,97212.28
2023-04-08T15:46:19.560Z,97203.41
2023-04-08T15:49:24.494Z,97195.63
2023-04-08T15:52:29.063Z,97181.88
2023-04-08T15:55:40.714Z,97208.03
2023-04-08T15:58:46.082Z,97210.25
2023-04-08T16:01:50.902Z,97210.50
2023-04-08T16:04:55.575Z,97216.09
2023-04-08T16:08:00.131Z,97210.88
2023-04-08T16:11:06.477Z,97187.38
2023-04-08T16:14:12.107Z,97231.44
2023-04-08T16:17:16.854Z,97215.78
2023-04-08T16:20:21.833Z,97209.34
2023-04-08T16:23:26.494Z,97223.81
2023-04-08T16:26:31.150Z,97235.13
2023-04-08T16:29:35.852Z,97239.00
2023-04-08T16:32:41.778Z,97222.84
2023-04-08T16:35:46.522Z,97252.41
2023-04-08T16:38:51.341Z,97260.81
2023-04-08T16:41:55.957Z,97241.59
2023-04-08T16:45:01.206Z,97263.59
2023-04-08T16:48:06.543Z,97264.78
2023-04-08T16:51:11.480Z,97246.56
2023-04-08T16:54:16.324Z,97251.81
2023-04-08T16:57:21.220Z,97256.72
2023-04-08T17:00:25.951Z,97265.72
2023-04-08T17:03:30.640Z,97271.00
2023-04-08T17:06:36.113Z,97262.69
2023-04-08T17:09:40.933Z,97272.09
2023-04-08T17:12:46.066Z,97269.13
2023-04-08T17:15:51.100Z,97272.75
2023-04-08T17:18:55.722Z,97285.09
2023-04-08T17:22:00.205Z,97292.22
2023-04-08T17:25:05.017Z,97290.78
2023-04-08T17:28:09.597Z,97308.97
2023-04-08T17:31:14.212Z,97305.06
2023-04-08T17:34:19.086Z,97301.09
2023-04-08T17:37:23.563Z,97284.09
2023-04-08T17:40:28.182Z,97316.50
2023-04-08T17:43:32.706Z,97298.63
2023-04-08T17:46:37.304Z,97302.41
2023-04-08T17:49:42.080Z,97319.50
2023-04-08T17:52:47.757Z,97301.41
2023-04-08T17:55:52.406Z,97339.13
2023-04-08T17:58:56.877Z,97308.53
2023-04-08T18:02:01.545Z,97339.13
2023-04-08T18:05:07.660Z,97349.19
2023-04-08T18:08:12.500Z,97316.75
2023-04-08T18:11:17.295Z,97313.13
2023-04-08T18:14:21.909Z,97334.13
2023-04-08T18:17:27.945Z,97340.88
2023-04-08T18:20:38.538Z,97321.22
2023-04-08T18:23:43.118Z,97368.03
2023-04-08T18:26:54.342Z,97335.91
2023-04-08T18:30:02.536Z,97371.19
2023-04-08T18:33:07.645Z,97384.81
2023-04-08T18:36:12.759Z,97386.56
2023-04-08T18:39:18.203Z,97373.59
2023-04-08T18:42:22.788Z,97380.38
2023-04-08T18:45:28.139Z,97378.91
2023-04-08T18:48:33.605Z,97401.41
2023-04-08T18:54:43.221Z,97397.22
2023-04-08T18:57:48.117Z,97411.88
2023-04-08T19:00:53.140Z,97416.13
2023-04-08T19:03:58.220Z,97403.38
2023-04-08T19:07:03.181Z,97393.06
2023-04-08T19:10:08.497Z,97419.41
2023-04-08T19:13:13.286Z,97415.19
2023-04-08T19:16:17.802Z,97416.19
2023-04-08T19:19:22.401Z,97440.06
2023-04-08T19:22:27.272Z,97435.69
2023-04-08T19:25:31.926Z,97414.19
2023-04-08T19:28:37.015Z,97437.25
2023-04-08T19:31:41.689Z,97437.31
2023-04-08T19:34:46.334Z,97444.25
2023-04-08T19:37:51.172Z,97437.66
2023-04-08T19:40:55.767Z,97419.81
2023-04-08T19:44:00.307Z,97442.88
2023-04-08T19:47:05.044Z,97450.50
2023-04-08T19:50:10.307Z,97454.78
2023-04-08T19:53:15.163Z,97441.06
2023-04-08T19:56:19.829Z,97446.28
2023-04-08T19:59:24.875Z,97453.09
2023-04-08T20:02:29.578Z,97443.66
2023-04-08T20:05:34.180Z,97436.88
2023-04-08T20:08:38.901Z,97456.63
2023-04-08T20:11:43.832Z,97428.41
2023-04-08T20:14:48.379Z,97441.25
2023-04-08T20:17:53.332Z,97444.59
2023-04-08T20:20:57.890Z,97443.75
2023-04-08T20:24:02.882Z,97448.81
2023-04-08T20:27:07.547Z,97467.81
2023-04-08T20:30:13.077Z,97456.59
2023-04-08T20:33:17.734Z,97429.31
2023-04-08T20:36:25.238Z,97448.97
2023-04-08T20:39:31.062Z,97451.56
2023-04-08T20:42:35.611Z,97465.28
2023-04-08T20:45:40.268Z,97455.00
2023-04-08T20:48:44.967Z,97444.63
2023-04-08T20:51:49.784Z,97478.81
2023-04-08T20:54:54.378Z,97435.88
2023-04-08T20:58:00.504Z,97467.59
2023-04-08T21:01:05.173Z,97459.19
2023-04-08T21:04:09.794Z,97435.16
2023-04-08T21:07:14.286Z,97416.16
2023-04-08T21:10:18.957Z,97468.41
2023-04-08T21:13:23.533Z,97430.03
2023-04-08T21:16:29.227Z,97451.47
2023-04-08T21:19:33.809Z,97434.38
2023-04-08T21:22:38.519Z,97449.94
2023-04-08T21:25:43.349Z,97467.09
2023-04-08T21:28:49.962Z,97455.94
2023-04-08T21:31:54.970Z,97439.75
2023-04-08T21:35:00.124Z,97444.75
2023-04-08T21:38:04.688Z,97481.72
2023-04-08T21:41:09.258Z,97453.44
2023-04-08T21:44:15.558Z,97474.81
2023-04-08T21:47:20.289Z,97460.28
2023-04-08T21:50:24.868Z,97462.84
2023-04-08T21:53:29.505Z,97481.66
2023-04-08T21:56:34.121Z,97441.06
2023-04-08T21:59:38.652Z,97473.97
2023-04-08T22:02:43.830Z,97462.28
2023-04-08T22:05:48.611Z,97469.59
2023-04-08T22:08:53.459Z,97483.22
2023-04-08T22:11:58.157Z,97485.03
2023-04-08T22:15:03.873Z,97465.22
2023-04-08T22:18:08.618Z,97465.22
2023-04-08T22:21:13.522Z,97478.16
2023-04-08T22:24:21.250Z,97475.75
2023-04-08T22:27:28.141Z,97464.28
2023-04-08T22:30:32.748Z,97448.13
2023-04-08T22:33:38.090Z,97477.38
2023-04-08T22:36:42.708Z,97472.19
2023-04-08T22:39:47.246Z,97459.41
2023-04-08T22:42:51.958Z,97425.97
2023-04-08T22:45:56.594Z,97464.66
2023-04-08T22:49:01.620Z,97466.28
2023-04-08T22:52:06.085Z,97474.88
2023-04-08T22:55:11.149Z,97434.63
2023-04-08T22:58:15.892Z,97435.47
2023-04-08T23:01:23.270Z,97460.31
2023-04-08T23:04:27.902Z,97434.56
2023-04-08T23:07:32.620Z,97446.56
2023-04-08T23:10:37.403Z,97452.59
2023-04-08T23:13:42.207Z,97473.19
2023-04-08T23:16:46.723Z,97470.63
2023-04-08T23:19:51.465Z,97472.31
2023-04-08T23:22:56.156Z,97469.75
2023-04-08T23:26:00.766Z,97465.47
2023-04-08T23:29:05.364Z,97464.63
2023-04-08T23:32:10.049Z,97469.72
2023-04-08T23:35:16.362Z,97476.59
2023-04-08T23:38:21.056Z,97480.91
2023-04-08T23:41:26.118Z,97440.66
2023-04-08T23:44:30.700Z,97440.66
2023-04-08T23:47:35.487Z,97464.66
2023-04-08T23:50:40.558Z,97452.66
2023-04-08T23:53:45.630Z,97462.97
2023-04-08T23:56:50.330Z,97465.53
2023-04-08T23:59:54.902Z,97462.97
